createdAt,value
2023-04-29T00:00:31.002Z,99586.72
2023-04-29T00:02:03.028Z,99587.56
2023-04-29T00:03:35.355Z,99588.41
2023-04-29T00:05:08.013Z,99582.16
2023-04-29T00:06:40.415Z,99586.56
2023-04-29T00:08:12.383Z,99585.47
2023-04-29T00:09:44.200Z,99583.59
2023-04-29T00:11:16.411Z,99585.34
2023-04-29T00:12:48.990Z,99579.94
2023-04-29T00:14:21.229Z,99579.66
2023-04-29T00:15:53.025Z,99579.66
2023-04-29T00:17:24.964Z,99572.53
2023-04-29T00:18:57.107Z,99577.66
2023-04-29T00:20:29.040Z,99570.56
2023-04-29T00:22:01.479Z,99575.97
2023-04-29T00:23:34.191Z,99572.25
2023-04-29T00:25:09.192Z,99566.88
2023-04-29T00:26:41.507Z,99566.19
2023-04-29T00:28:13.375Z,99562.75
2023-04-29T00:29:45.269Z,99566.47
2023-04-29T00:31:17.073Z,99564.91
2023-04-29T00:32:50.094Z,99568.59
2023-04-29T00:34:21.943Z,99565.16
2023-04-29T00:35:53.795Z,99570.53
2023-04-29T00:37:25.657Z,99558.91
2023-04-29T00:38:57.723Z,99554.50
2023-04-29T00:40:29.614Z,99552.69
2023-04-29T00:42:03.596Z,99548.97
2023-04-29T00:43:35.569Z,99551.81
2023-04-29T00:45:08.933Z,99542.59
2023-04-29T00:46:41.595Z,99545.19
2023-04-29T00:48:15.457Z,99543.19
2023-04-29T00:49:47.387Z,99541.66
2023-04-29T00:51:19.222Z,99555.13
2023-04-29T00:52:52.759Z,99554.13
2023-04-29T00:54:24.978Z,99554.97
2023-04-29T00:55:56.848Z,99551.25
2023-04-29T00:57:30.156Z,99549.44
2023-04-29T00:59:03.778Z,99554.69
2023-04-29T01:00:37.240Z,99554.50
2023-04-29T01:02:09.099Z,99552.69
2023-04-29T01:03:42.081Z,99564.88
2023-04-29T01:05:15.600Z,99558.66
2023-04-29T01:07:22.476Z,99547.03
2023-04-29T01:09:17.189Z,99549.56
2023-04-29T01:10:58.643Z,99554.66
2023-04-29T01:12:36.414Z,99551.69
2023-04-29T01:14:09.001Z,99547.00
2023-04-29T01:15:48.220Z,99542.75
2023-04-29T01:17:25.560Z,99555.38
2023-04-29T01:18:59.710Z,99557.19
2023-04-29T01:20:38.098Z,99556.34
2023-04-29T01:22:09.898Z,99558.19
2023-04-29T01:28:19.164Z,99577.34
2023-04-29T01:30:07.943Z,99581.63
2023-04-29T01:31:49.354Z,99577.06
2023-04-29T01:33:41.924Z,99572.81
2023-04-29T01:35:45.871Z,99582.75
2023-04-29T01:37:41.434Z,99585.31
2023-04-29T01:39:41.931Z,99589.28
2023-04-29T01:41:23.795Z,99592.84
2023-04-29T01:43:04.437Z,99594.81
2023-04-29T01:44:38.606Z,99596.69
2023-04-29T01:46:11.923Z,99600.50
2023-04-29T01:47:46.454Z,99600.78
2023-04-29T01:49:24.476Z,99601.78
2023-04-29T01:50:56.271Z,99598.34
2023-04-29T01:52:28.895Z,99595.94
2023-04-29T01:54:01.787Z,99593.53
2023-04-29T01:55:33.587Z,99594.66
2023-04-29T01:57:18.144Z,99590.25
2023-04-29T01:59:08.412Z,99588.69
2023-04-29T02:00:51.580Z,99600.63
2023-04-29T02:02:25.604Z,99590.16
2023-04-29T02:04:05.470Z,99606.44
2023-04-29T02:05:37.640Z,99607.44
2023-04-29T02:07:09.864Z,99602.03
2023-04-29T02:08:41.858Z,99592.13
2023-04-29T02:10:13.953Z,99594.94
2023-04-29T02:11:47.495Z,99598.63
2023-04-29T02:13:19.285Z,99590.44
2023-04-29T02:14:54.450Z,99593.25
2023-04-29T02:16:26.549Z,99590.56
2023-04-29T02:18:02.596Z,99598.63
2023-04-29T02:19:34.501Z,99588.69
2023-04-29T02:21:07.140Z,99587.84
2023-04-29T02:22:40.085Z,99562.59
2023-04-29T02:24:11.889Z,99585.03
2023-04-29T02:25:43.718Z,99600.31
2023-04-29T02:27:15.443Z,99589.53
2023-04-29T02:28:47.375Z,99589.41
2023-04-29T02:30:19.150Z,99592.97
2023-04-29T02:31:51.252Z,99589.25
2023-04-29T02:33:23.053Z,99592.97
2023-04-29T02:34:54.850Z,99588.41
2023-04-29T02:36:26.839Z,99581.19
2023-04-29T02:37:58.665Z,99583.88
2023-04-29T02:39:30.558Z,99585.72
2023-04-29T02:41:02.410Z,99578.66
2023-04-29T02:42:34.204Z,99575.94
2023-04-29T02:44:06.465Z,99580.50
2023-04-29T02:45:39.348Z,99575.09
2023-04-29T02:47:11.520Z,99575.09
2023-04-29T02:49:02.340Z,99579.66
2023-04-29T02:50:53.009Z,99575.09
2023-04-29T02:52:43.328Z,99576.06
2023-04-29T02:54:15.716Z,99572.41
2023-04-29T02:55:48.578Z,99572.25
2023-04-29T02:57:20.471Z,99582.06
2023-04-29T02:58:52.267Z,99572.13
2023-04-29T03:00:24.361Z,99573.69
2023-04-29T03:01:56.148Z,99572.53
2023-04-29T03:03:28.066Z,99572.41
2023-04-29T03:05:00.129Z,99572.25
2023-04-29T03:06:32.953Z,99576.50
2023-04-29T03:08:05.577Z,99574.66
2023-04-29T03:09:38.312Z,99573.69
2023-04-29T03:11:10.114Z,99573.38
2023-04-29T03:12:42.197Z,99575.09
2023-04-29T03:14:14.211Z,99568.69
2023-04-29T03:15:46.170Z,99563.22
2023-04-29T03:17:18.076Z,99560.34
2023-04-29T03:18:50.206Z,99562.31
2023-04-29T03:20:22.118Z,99564.06
2023-04-29T03:21:54.161Z,99572.81
2023-04-29T03:23:27.006Z,99565.75
2023-04-29T03:24:59.535Z,99565.47
2023-04-29T03:26:31.995Z,99568.88
2023-04-29T03:28:04.479Z,99567.16
2023-04-29T03:29:37.125Z,99567.16
2023-04-29T03:31:09.269Z,99553.84
2023-04-29T03:32:41.454Z,99566.19
2023-04-29T03:34:14.849Z,99565.47
2023-04-29T03:35:51.137Z,99567.16
2023-04-29T03:37:31.042Z,99570.00
2023-04-29T03:39:23.658Z,99567.31
2023-04-29T03:40:55.630Z,99562.03
2023-04-29T03:42:27.499Z,99557.81
2023-04-29T03:44:01.062Z,99563.22
2023-04-29T03:45:34.310Z,99558.75
2023-04-29T03:47:06.947Z,99556.22
2023-04-29T03:48:38.848Z,99561.75
2023-04-29T03:50:10.944Z,99563.59
2023-04-29T03:51:45.613Z,99570.84
2023-04-29T03:53:21.907Z,99568.97
2023-04-29T03:54:53.811Z,99560.91
2023-04-29T03:56:26.017Z,99567.84
2023-04-29T03:57:58.294Z,99559.75
2023-04-29T03:59:30.447Z,99569.44
2023-04-29T04:01:02.352Z,99564.91
2023-04-29T04:02:42.172Z,99560.22
2023-04-29T04:04:15.980Z,99559.22
2023-04-29T04:05:50.584Z,99560.78
2023-04-29T04:07:22.464Z,99560.63
2023-04-29T04:09:17.300Z,99565.72
2023-04-29T04:10:49.310Z,99562.88
2023-04-29T04:12:35.224Z,99565.28
2023-04-29T04:14:07.702Z,99566.84
2023-04-29T04:15:40.569Z,99565.88
2023-04-29T04:17:12.584Z,99564.03
2023-04-29T04:18:44.422Z,99564.69
2023-04-29T04:20:16.333Z,99572.50
2023-04-29T04:21:48.294Z,99570.66
2023-04-29T04:23:20.224Z,99568.69
2023-04-29T04:24:52.121Z,99575.63
2023-04-29T04:26:24.430Z,99565.41
2023-04-29T04:28:21.770Z,99565.25
2023-04-29T04:30:04.454Z,99572.34
2023-04-29T04:31:38.437Z,99571.34
2023-04-29T04:33:11.630Z,99573.91
2023-04-29T04:34:45.407Z,99569.19
2023-04-29T04:36:17.393Z,99579.84
2023-04-29T04:37:50.466Z,99574.31
2023-04-29T04:39:22.329Z,99581.25
2023-04-29T04:40:54.478Z,99580.13
2023-04-29T04:42:37.670Z,99576.13
2023-04-29T04:44:10.678Z,99583.38
2023-04-29T04:46:01.165Z,99583.38
2023-04-29T04:47:33.246Z,99579.38
2023-04-29T04:49:09.064Z,99578.38
2023-04-29T04:50:47.436Z,99575.53
2023-04-29T04:52:22.361Z,99577.22
2023-04-29T04:54:04.573Z,99578.06
2023-04-29T04:55:38.083Z,99588.56
2023-04-29T04:57:09.983Z,99585.75
2023-04-29T04:58:41.838Z,99579.19
2023-04-29T05:00:14.110Z,99584.28
2023-04-29T05:01:46.376Z,99583.97
2023-04-29T05:03:18.387Z,99576.59
2023-04-29T05:04:50.306Z,99581.72
2023-04-29T05:06:23.802Z,99580.56
2023-04-29T05:07:56.058Z,99579.56
2023-04-29T05:09:35.743Z,99588.38
2023-04-29T05:11:07.554Z,99589.03
2023-04-29T05:12:40.229Z,99588.91
2023-04-29T05:14:12.649Z,99587.91
2023-04-29T05:15:45.162Z,99588.91
2023-04-29T05:17:17.796Z,99587.91
2023-04-29T05:18:49.643Z,99587.06
2023-04-29T05:20:22.681Z,99586.03
2023-04-29T05:21:54.533Z,99589.59
2023-04-29T05:23:26.604Z,99587.78
2023-04-29T05:25:03.098Z,99588.63
2023-04-29T05:26:36.685Z,99592.84
2023-04-29T05:28:08.506Z,99597.09
2023-04-29T05:29:43.110Z,99598.66
2023-04-29T05:31:15.124Z,99597.50
2023-04-29T05:32:47.389Z,99608.84
2023-04-29T05:34:21.242Z,99606.75
2023-04-29T05:35:53.098Z,99608.28
2023-04-29T05:37:27.252Z,99613.22
2023-04-29T05:39:08.262Z,99615.63
2023-04-29T05:40:40.800Z,99614.31
2023-04-29T05:42:37.705Z,99609.31
2023-04-29T05:44:09.960Z,99615.97
2023-04-29T05:45:41.787Z,99611.66
2023-04-29T05:47:13.739Z,99616.31
2023-04-29T05:48:46.302Z,99611.00
2023-04-29T05:50:18.424Z,99619.16
2023-04-29T05:51:50.244Z,99619.94
2023-04-29T05:53:22.093Z,99618.19
2023-04-29T05:54:54.647Z,99616.41
2023-04-29T05:56:26.927Z,99616.47
2023-04-29T05:58:00.459Z,99624.66
2023-04-29T05:59:32.955Z,99618.34
2023-04-29T06:01:09.246Z,99625.66
2023-04-29T06:02:54.786Z,99622.34
2023-04-29T06:04:30.653Z,99626.94
2023-04-29T06:06:18.622Z,99630.56
2023-04-29T06:08:25.788Z,99629.09
2023-04-29T06:09:59.182Z,99630.47
2023-04-29T06:11:31.978Z,99629.84
2023-04-29T06:13:05.874Z,99633.22
2023-04-29T06:14:37.844Z,99634.59
2023-04-29T06:16:10.829Z,99630.56
2023-04-29T06:17:43.529Z,99637.34
2023-04-29T06:19:15.572Z,99632.47
2023-04-29T06:20:47.633Z,99634.69
2023-04-29T06:22:19.789Z,99631.50
2023-04-29T06:23:55.484Z,99632.72
2023-04-29T06:25:27.435Z,99631.06
2023-04-29T06:26:59.420Z,99642.97
2023-04-29T06:28:32.017Z,99647.91
2023-04-29T06:30:04.187Z,99640.31
2023-04-29T06:31:36.167Z,99639.97
2023-04-29T06:33:09.547Z,99647.94
2023-04-29T06:34:41.600Z,99646.94
2023-04-29T06:36:32.444Z,99650.50
2023-04-29T06:38:33.740Z,99647.09
2023-04-29T06:40:14.516Z,99649.97
2023-04-29T06:42:04.913Z,99645.53
2023-04-29T06:43:55.229Z,99647.59
2023-04-29T06:45:48.716Z,99659.59
2023-04-29T06:47:26.665Z,99653.47
2023-04-29T06:49:11.798Z,99655.53
2023-04-29T06:51:01.845Z,99655.31
2023-04-29T06:52:33.722Z,99654.13
2023-04-29T06:54:06.020Z,99650.84
2023-04-29T06:55:37.839Z,99655.44
2023-04-29T06:57:09.701Z,99662.72
2023-04-29T06:58:41.696Z,99657.31
2023-04-29T07:00:13.877Z,99664.59
2023-04-29T07:01:47.093Z,99659.81
2023-04-29T07:03:20.267Z,99661.69
2023-04-29T07:04:52.871Z,99661.59
2023-04-29T07:06:24.831Z,99667.94
2023-04-29T07:07:57.818Z,99661.69
2023-04-29T07:09:30.413Z,99664.59
2023-04-29T07:11:02.377Z,99670.13
2023-04-29T07:12:34.182Z,99669.47
2023-04-29T07:14:05.993Z,99665.22
2023-04-29T07:15:38.050Z,99665.38
2023-04-29T07:17:11.360Z,99675.34
2023-04-29T07:18:44.594Z,99671.97
2023-04-29T07:20:16.650Z,99671.09
2023-04-29T07:21:49.312Z,99674.81
2023-04-29T07:23:21.205Z,99677.38
2023-04-29T07:24:57.212Z,99682.81
2023-04-29T07:26:29.553Z,99678.75
2023-04-29T07:28:01.410Z,99675.03
2023-04-29T07:29:33.593Z,99680.13
2023-04-29T07:31:06.267Z,99678.97
2023-04-29T07:32:38.514Z,99683.25
2023-04-29T07:34:10.519Z,99681.22
2023-04-29T07:35:43.466Z,99680.03
2023-04-29T07:37:15.318Z,99682.59
2023-04-29T07:38:47.158Z,99686.81
2023-04-29T07:40:19.700Z,99687.69
2023-04-29T07:41:52.269Z,99688.56
2023-04-29T07:43:24.079Z,99685.66
2023-04-29T07:44:56.148Z,99699.38
2023-04-29T07:46:28.739Z,99703.97
2023-04-29T07:48:00.686Z,99708.34
2023-04-29T07:49:32.594Z,99713.06
2023-04-29T07:51:04.537Z,99702.25
2023-04-29T07:52:36.338Z,99706.13
2023-04-29T07:54:08.374Z,99705.59
2023-04-29T07:55:40.300Z,99709.50
2023-04-29T07:57:12.190Z,99714.91
2023-04-29T07:58:44.105Z,99705.03
2023-04-29T08:00:16.155Z,99705.88
2023-04-29T08:01:47.932Z,99704.06
2023-04-29T08:03:20.803Z,99711.88
2023-04-29T08:04:54.923Z,99721.06
2023-04-29T08:06:27.982Z,99721.25
2023-04-29T08:07:59.780Z,99721.13
2023-04-29T08:09:31.618Z,99724.56
2023-04-29T08:11:03.655Z,99721.41
2023-04-29T08:12:35.608Z,99725.00
2023-04-29T08:14:07.445Z,99717.72
2023-04-29T08:15:39.299Z,99721.16
2023-04-29T08:17:11.328Z,99720.16
2023-04-29T08:18:43.210Z,99716.50
2023-04-29T08:20:15.618Z,99719.22
2023-04-29T08:21:47.923Z,99723.63
2023-04-29T08:23:19.732Z,99728.25
2023-04-29T08:24:51.795Z,99728.41
2023-04-29T08:26:24.228Z,99725.69
2023-04-29T08:27:56.384Z,99733.16
2023-04-29T08:29:28.259Z,99736.22
2023-04-29T08:31:00.320Z,99732.31
2023-04-29T08:32:34.889Z,99730.13
2023-04-29T08:34:06.855Z,99736.22
2023-04-29T08:35:38.916Z,99742.69
2023-04-29T08:37:11.907Z,99748.44
2023-04-29T08:38:43.781Z,99749.81
2023-04-29T08:40:15.673Z,99744.88
2023-04-29T08:41:51.496Z,99747.41
2023-04-29T08:43:23.634Z,99755.56
2023-04-29T08:44:58.165Z,99751.81
2023-04-29T08:46:30.743Z,99749.94
2023-04-29T08:48:07.286Z,99750.78
2023-04-29T08:49:39.533Z,99751.44
2023-04-29T08:51:14.067Z,99751.94
2023-04-29T08:52:45.932Z,99751.69
2023-04-29T08:54:17.937Z,99753.22
2023-04-29T08:55:49.788Z,99755.56
2023-04-29T08:57:23.370Z,99765.03
2023-04-29T08:58:58.583Z,99784.16
2023-04-29T09:00:33.021Z,99775.69
2023-04-29T09:02:10.869Z,99785.19
2023-04-29T09:04:10.651Z,99780.22
2023-04-29T09:05:43.625Z,99782.78
2023-04-29T09:07:15.590Z,99783.13
2023-04-29T09:08:47.758Z,99790.53
2023-04-29T09:10:20.260Z,99783.75
2023-04-29T09:11:52.502Z,99783.06
2023-04-29T09:13:32.024Z,99776.28
2023-04-29T09:15:04.559Z,99784.53
2023-04-29T09:16:38.566Z,99787.44
2023-04-29T09:18:10.617Z,99785.03
2023-04-29T09:19:44.656Z,99781.63
2023-04-29T09:21:22.864Z,99782.66
2023-04-29T09:23:06.181Z,99792.66
2023-04-29T09:24:38.789Z,99782.66
2023-04-29T09:26:10.662Z,99795.19
2023-04-29T09:27:43.040Z,99798.59
2023-04-29T09:29:16.468Z,99804.53
2023-04-29T09:30:48.484Z,99807.09
2023-04-29T09:32:23.215Z,99803.38
2023-04-29T09:33:57.851Z,99800.34
2023-04-29T09:35:29.671Z,99795.63
2023-04-29T09:37:01.552Z,99804.28
2023-04-29T09:38:33.747Z,99808.50
2023-04-29T09:40:07.284Z,99805.31
2023-04-29T09:41:43.782Z,99805.66
2023-04-29T09:43:18.492Z,99815.88
2023-04-29T09:44:50.339Z,99811.66
2023-04-29T09:46:22.243Z,99818.47
2023-04-29T09:48:03.299Z,99817.97
2023-04-29T09:49:38.723Z,99820.06
2023-04-29T09:51:10.636Z,99811.44
2023-04-29T09:52:42.745Z,99812.81
2023-04-29T09:54:22.942Z,99823.19
2023-04-29T09:55:54.715Z,99819.97
2023-04-29T09:57:41.520Z,99821.31
2023-04-29T09:59:14.847Z,99822.19
2023-04-29T10:00:46.936Z,99824.06
2023-04-29T10:02:19.313Z,99818.81
2023-04-29T10:03:54.991Z,99817.31
2023-04-29T10:05:30.475Z,99821.25
2023-04-29T10:07:02.843Z,99828.22
2023-04-29T10:08:35.442Z,99832.44
2023-04-29T10:10:11.781Z,99833.97
2023-04-29T10:11:45.080Z,99832.78
2023-04-29T10:13:17.141Z,99830.78
2023-04-29T10:15:05.145Z,99833.97
2023-04-29T10:16:46.854Z,99837.19
2023-04-29T10:18:26.475Z,99838.41
2023-04-29T10:20:06.018Z,99833.97
2023-04-29T10:21:38.453Z,99843.28
2023-04-29T10:23:11.360Z,99842.63
2023-04-29T10:24:44.305Z,99846.53
2023-04-29T10:26:18.113Z,99848.53
2023-04-29T10:27:53.713Z,99851.59
2023-04-29T10:29:28.672Z,99847.38
2023-04-29T10:31:04.970Z,99841.25
2023-04-29T10:34:14.155Z,99854.81
2023-04-29T10:35:48.502Z,99856.50
2023-04-29T10:37:20.595Z,99857.03
2023-04-29T10:38:56.148Z,99850.59
2023-04-29T10:40:30.894Z,99851.94
2023-04-29T10:42:05.632Z,99861.44
2023-04-29T10:43:37.556Z,99864.53
2023-04-29T10:45:18.810Z,99857.75
2023-04-29T10:47:20.575Z,99858.75
2023-04-29T10:49:04.049Z,99861.50
2023-04-29T10:50:42.614Z,99862.88
2023-04-29T10:52:16.998Z,99855.25
2023-04-29T10:54:08.360Z,99865.59
2023-04-29T10:55:41.220Z,99868.00
2023-04-29T10:57:21.939Z,99867.28
2023-04-29T10:58:53.716Z,99864.59
2023-04-29T11:00:29.666Z,99872.38
2023-04-29T11:02:01.481Z,99861.66
2023-04-29T11:04:00.509Z,99869.28
2023-04-29T11:05:37.212Z,99876.75
2023-04-29T11:07:09.057Z,99873.16
2023-04-29T11:08:41.894Z,99878.41
2023-04-29T11:10:14.150Z,99882.13
2023-04-29T11:11:47.501Z,99883.63
2023-04-29T11:13:25.053Z,99894.31
2023-04-29T11:15:05.050Z,99887.50
2023-04-29T11:16:40.490Z,99881.38
2023-04-29T11:18:12.501Z,99894.44
2023-04-29T11:19:50.549Z,99893.06
2023-04-29T11:21:22.871Z,99890.50
2023-04-29T11:22:55.360Z,99895.59
2023-04-29T11:24:27.627Z,99894.91
2023-04-29T11:25:59.524Z,99890.19
2023-04-29T11:27:33.875Z,99894.44
2023-04-29T11:29:06.002Z,99896.13
2023-04-29T11:30:38.936Z,99902.06
2023-04-29T11:32:10.824Z,99905.50
2023-04-29T11:33:42.903Z,99903.44
2023-04-29T11:35:17.132Z,99902.47
2023-04-29T11:36:48.940Z,99908.97
2023-04-29T11:38:28.282Z,99905.41
2023-04-29T11:40:01.542Z,99898.16
2023-04-29T11:41:33.517Z,99902.88
2023-04-29T11:43:06.333Z,99910.38
2023-04-29T11:44:38.248Z,99903.44
2023-04-29T11:46:14.137Z,99905.63
2023-04-29T11:47:47.960Z,99917.22
2023-04-29T11:49:20.421Z,99916.88
2023-04-29T11:50:59.115Z,99916.88
2023-04-29T11:52:31.047Z,99927.75
2023-04-29T11:54:02.895Z,99921.16
2023-04-29T11:55:34.797Z,99922.50
2023-04-29T11:57:07.034Z,99928.44
2023-04-29T11:58:39.550Z,99936.97
2023-04-29T12:00:14.941Z,99936.44
2023-04-29T12:01:47.209Z,99932.53
2023-04-29T12:03:20.837Z,99935.41
2023-04-29T12:04:53.216Z,99937.81
2023-04-29T12:06:29.164Z,99945.94
2023-04-29T12:08:01.302Z,99952.19
2023-04-29T12:09:43.032Z,99951.63
2023-04-29T12:11:17.558Z,99948.91
2023-04-29T12:12:49.741Z,99954.47
2023-04-29T12:14:21.796Z,99961.19
2023-04-29T12:15:54.103Z,99961.19
2023-04-29T12:17:26.167Z,99964.88
2023-04-29T12:18:58.919Z,99965.84
2023-04-29T12:20:31.145Z,99978.34
2023-04-29T12:22:03.738Z,99973.88
2023-04-29T12:23:36.107Z,99972.41
2023-04-29T12:25:08.673Z,99967.78
2023-04-29T12:26:40.740Z,99971.28
2023-04-29T12:28:13.752Z,99972.78
2023-04-29T12:29:46.888Z,99969.22
2023-04-29T12:31:18.786Z,99966.34
2023-04-29T12:32:52.512Z,99968.56
2023-04-29T12:34:29.504Z,99974.00
2023-04-29T12:36:02.231Z,99966.41
2023-04-29T12:37:35.487Z,99973.00
2023-04-29T12:39:10.385Z,99983.84
2023-04-29T12:40:42.197Z,99977.38
2023-04-29T12:42:19.707Z,99983.41
2023-04-29T12:43:51.657Z,99985.03
2023-04-29T12:45:34.275Z,99982.28
2023-04-29T12:47:10.762Z,99990.00
2023-04-29T12:48:43.953Z,99993.81
2023-04-29T12:50:15.953Z,99998.47
2023-04-29T12:51:47.849Z,99991.44
2023-04-29T12:53:19.653Z,100002.31
2023-04-29T12:54:51.801Z,100004.53
2023-04-29T12:56:23.936Z,100006.28
2023-04-29T12:57:57.617Z,100019.03
2023-04-29T12:59:30.554Z,100017.22
2023-04-29T13:01:02.437Z,100020.69
2023-04-29T13:02:35.900Z,100022.25
2023-04-29T13:04:11.133Z,100023.16
2023-04-29T13:05:43.214Z,100017.78
2023-04-29T13:07:15.077Z,100027.47
2023-04-29T13:08:46.911Z,100028.47
2023-04-29T13:10:18.856Z,100022.81
2023-04-29T13:11:50.689Z,100033.47
2023-04-29T13:13:22.609Z,100029.81
2023-04-29T13:14:57.803Z,100027.81
2023-04-29T13:16:29.929Z,100038.34
2023-04-29T13:18:02.609Z,100048.75
2023-04-29T13:19:49.648Z,100045.78
2023-04-29T13:21:23.402Z,100047.47
2023-04-29T13:22:55.423Z,100040.94
2023-04-29T13:24:27.460Z,100047.91
2023-04-29T13:25:59.235Z,100046.03
2023-04-29T13:29:03.340Z,100048.00
2023-04-29T13:30:35.243Z,100052.28
2023-04-29T13:32:08.450Z,100049.09
2023-04-29T13:33:40.427Z,100051.38
2023-04-29T13:35:12.443Z,100048.09
2023-04-29T13:36:44.952Z,100052.19
2023-04-29T13:38:17.880Z,100052.47
2023-04-29T13:39:56.421Z,100054.75
2023-04-29T13:41:32.689Z,100052.31
2023-04-29T13:44:51.647Z,100050.84
2023-04-29T13:46:32.741Z,100059.22
2023-04-29T13:48:12.353Z,100067.31
2023-04-29T13:52:07.095Z,100064.31
2023-04-29T13:55:13.856Z,100063.72
2023-04-29T13:57:36.873Z,100058.34
2023-04-29T13:59:08.447Z,100066.59
2023-04-29T14:01:01.435Z,100063.88
2023-04-29T14:02:25.030Z,100066.59
2023-04-29T14:03:57.751Z,100060.34
2023-04-29T14:05:29.729Z,100075.66
2023-04-29T14:07:01.616Z,100072.94
2023-04-29T14:08:33.463Z,100071.25
2023-04-29T14:10:06.656Z,100071.13
2023-04-29T14:11:38.639Z,100068.44
2023-04-29T14:13:10.421Z,100073.81
2023-04-29T14:14:42.197Z,100080.94
2023-04-29T14:16:14.031Z,100082.63
2023-04-29T14:17:46.078Z,100074.25
2023-04-29T14:19:17.949Z,100075.84
2023-04-29T14:20:49.764Z,100085.50
2023-04-29T14:22:21.672Z,100084.50
2023-04-29T14:23:53.755Z,100081.69
2023-04-29T14:25:26.738Z,100084.97
2023-04-29T14:27:02.236Z,100086.53
2023-04-29T14:28:34.160Z,100081.72
2023-04-29T14:30:06.936Z,100092.38
2023-04-29T14:31:38.848Z,100096.66
2023-04-29T14:33:10.715Z,100095.81
2023-04-29T14:34:42.826Z,100095.66
2023-04-29T14:36:14.596Z,100096.22
2023-04-29T14:37:46.553Z,100095.13
2023-04-29T14:39:18.669Z,100094.84
2023-04-29T14:40:50.731Z,100097.09
2023-04-29T14:42:22.558Z,100103.09
2023-04-29T14:43:54.533Z,100100.03
2023-04-29T14:45:26.323Z,100096.03
2023-04-29T14:46:58.208Z,100094.66
2023-04-29T14:48:30.276Z,100102.31
2023-04-29T14:50:02.345Z,100106.47
2023-04-29T14:51:34.178Z,100106.03
2023-04-29T14:53:07.468Z,100107.47
2023-04-29T14:54:39.268Z,100108.19
2023-04-29T14:56:11.054Z,100106.91
2023-04-29T14:57:43.015Z,100116.59
2023-04-29T14:59:15.024Z,100121.72
2023-04-29T15:00:46.893Z,100115.19
2023-04-29T15:02:18.701Z,100128.53
2023-04-29T15:03:50.745Z,100121.44
2023-04-29T15:05:22.629Z,100119.44
2023-04-29T15:06:54.845Z,100126.56
2023-04-29T15:08:26.689Z,100124.72
2023-04-29T15:09:58.508Z,100120.31
2023-04-29T15:11:30.321Z,100123.13
2023-04-29T15:13:02.567Z,100120.44
2023-04-29T15:14:34.363Z,100126.00
2023-04-29T15:16:07.686Z,100123.41
2023-04-29T15:17:39.566Z,100122.41
2023-04-29T15:19:11.402Z,100125.09
2023-04-29T15:20:43.214Z,100117.16
2023-04-29T15:22:15.077Z,100119.59
2023-04-29T15:23:46.917Z,100124.41
2023-04-29T15:25:18.914Z,100129.66
2023-04-29T15:26:52.259Z,100133.22
2023-04-29T15:28:25.964Z,100126.84
2023-04-29T15:29:58.153Z,100130.25
2023-04-29T15:31:30.828Z,100130.97
2023-04-29T15:33:02.968Z,100131.69
2023-04-29T15:34:34.785Z,100135.94
2023-04-29T15:36:07.389Z,100143.91
2023-04-29T15:37:39.480Z,100135.66
2023-04-29T15:39:11.347Z,100137.22
2023-04-29T15:40:43.139Z,100140.78
2023-04-29T15:42:15.011Z,100137.09
2023-04-29T15:43:47.038Z,100136.94
2023-04-29T15:45:18.950Z,100137.94
2023-04-29T15:46:50.834Z,100138.81
2023-04-29T15:48:22.677Z,100139.81
2023-04-29T15:49:56.688Z,100134.53
2023-04-29T15:51:28.705Z,100139.94
2023-04-29T15:53:00.744Z,100145.50
2023-04-29T15:54:32.553Z,100144.75
2023-04-29T15:56:04.596Z,100147.63
2023-04-29T15:57:41.436Z,100147.63
2023-04-29T15:59:13.615Z,100154.16
2023-04-29T16:00:45.754Z,100154.16
2023-04-29T16:02:17.629Z,100150.44
2023-04-29T16:03:49.815Z,100161.25
2023-04-29T16:05:21.700Z,100160.41
2023-04-29T16:06:53.979Z,100154.16
2023-04-29T16:08:26.235Z,100162.97
2023-04-29T16:09:58.127Z,100166.38
2023-04-29T16:11:30.039Z,100166.38
2023-04-29T16:13:01.934Z,100170.78
2023-04-29T16:14:34.045Z,100163.41
2023-04-29T16:16:06.427Z,100164.25
2023-04-29T16:17:38.331Z,100168.53
2023-04-29T16:19:10.686Z,100170.22
2023-04-29T16:20:42.976Z,100169.25
2023-04-29T16:22:14.821Z,100169.25
2023-04-29T16:23:47.258Z,100164.69
2023-04-29T16:25:19.595Z,100177.22
2023-04-29T16:26:51.497Z,100168.09
2023-04-29T16:28:24.398Z,100171.81
2023-04-29T16:29:56.956Z,100178.06
2023-04-29T16:31:29.541Z,100176.38
2023-04-29T16:33:01.885Z,100174.50
2023-04-29T16:34:33.846Z,100170.97
2023-04-29T16:36:06.633Z,100175.50
2023-04-29T16:37:38.908Z,100183.47
2023-04-29T16:39:10.707Z,100179.06
2023-04-29T16:40:42.468Z,100179.06
2023-04-29T16:42:14.278Z,100183.47
2023-04-29T16:43:46.079Z,100178.22
2023-04-29T16:45:18.408Z,100181.78
2023-04-29T16:46:50.188Z,100182.78
2023-04-29T16:48:22.015Z,100187.31
2023-04-29T16:49:54.148Z,100187.31
2023-04-29T16:51:26.621Z,100192.88
2023-04-29T16:52:58.422Z,100192.00
2023-04-29T16:54:30.270Z,100191.16
2023-04-29T16:56:02.100Z,100198.38
2023-04-29T16:57:33.952Z,100201.09
2023-04-29T16:59:05.845Z,100202.66
2023-04-29T17:00:38.402Z,100200.81
2023-04-29T17:02:10.796Z,100197.41
2023-04-29T17:03:42.719Z,100201.09
2023-04-29T17:05:14.671Z,100194.84
2023-04-29T17:06:46.707Z,100200.41
2023-04-29T17:08:18.587Z,100205.81
2023-04-29T17:09:51.885Z,100210.09
2023-04-29T17:11:24.541Z,100208.50
2023-04-29T17:12:56.330Z,100207.66
2023-04-29T17:14:28.157Z,100212.06
2023-04-29T17:15:59.989Z,100214.03
2023-04-29T17:17:31.878Z,100222.13
2023-04-29T17:19:03.808Z,100215.03
2023-04-29T17:20:36.477Z,100222.13
2023-04-29T17:22:08.272Z,100221.28
2023-04-29T17:23:40.061Z,100227.81
2023-04-29T17:25:13.952Z,100226.00
2023-04-29T17:26:45.875Z,100218.00
2023-04-29T17:28:17.806Z,100222.72
2023-04-29T17:29:49.634Z,100233.53
2023-04-29T17:31:25.439Z,100233.66
2023-04-29T17:32:57.487Z,100240.06
2023-04-29T17:34:31.287Z,100235.63
2023-04-29T17:36:04.584Z,100245.59
2023-04-29T17:37:36.590Z,100244.88
2023-04-29T17:39:10.190Z,100242.31
2023-04-29T17:40:42.041Z,100239.75
2023-04-29T17:42:13.884Z,100248.84
2023-04-29T17:43:45.683Z,100245.44
2023-04-29T17:45:17.710Z,100253.66
2023-04-29T17:46:49.584Z,100249.38
2023-04-29T17:48:22.685Z,100258.47
2023-04-29T17:49:54.669Z,100255.09
2023-04-29T17:51:26.668Z,100259.75
2023-04-29T17:52:58.450Z,100260.75
2023-04-29T17:54:30.680Z,100264.44
2023-04-29T17:56:02.496Z,100260.16
2023-04-29T17:57:34.332Z,100265.53
2023-04-29T17:59:06.425Z,100268.41
2023-04-29T18:00:38.988Z,100267.66
2023-04-29T18:02:10.984Z,100267.81
2023-04-29T18:03:42.775Z,100272.50
2023-04-29T18:05:14.777Z,100272.63
2023-04-29T18:06:46.554Z,100274.59
2023-04-29T18:08:18.290Z,100274.75
2023-04-29T18:09:50.117Z,100271.31
2023-04-29T18:11:22.072Z,100277.72
2023-04-29T18:12:53.835Z,100277.13
2023-04-29T18:14:27.734Z,100279.97
2023-04-29T18:15:59.705Z,100281.91
2023-04-29T18:17:31.783Z,100284.88
2023-04-29T18:19:03.627Z,100282.31
2023-04-29T18:20:35.540Z,100278.75
2023-04-29T18:22:07.680Z,100285.25
2023-04-29T18:23:40.823Z,100287.25
2023-04-29T18:25:12.685Z,100283.84
2023-04-29T18:26:44.473Z,100282.13
2023-04-29T18:28:24.632Z,100281.41
2023-04-29T18:29:57.258Z,100284.25